Time;durP1;ratioP1;P1;durP2;ratioP2;P2;SDS_P1;SDS_P2;PMS_P1;PMS_P2;Temp;Humidity;BMP_temperature;BMP_pressure;BME280_temperature;BME280_humidity;BME280_pressure;Samples;Min_cycle;Max_cycle;Signal;HPM_P1;HPM_P2
2022/05/23 00:02:25;;;;;;;7.27;6.80;;;15.50;22.80;;;;;;5074763;28;20847;-71
2022/05/23 00:04:50;;;;;;;6.73;6.43;;;15.50;22.40;;;;;;5074699;28;20189;-72
2022/05/23 00:07:28;;;;;;;7.03;6.73;;;15.50;22.40;;;;;;5074007;28;20198;-71
2022/05/23 00:09:54;;;;;;;7.50;7.20;;;15.50;22.30;;;;;;5074528;28;20225;-72
2022/05/23 00:12:22;;;;;;;7.70;7.20;;;15.50;22.70;;;;;;5074576;28;20447;-71
2022/05/23 00:14:51;;;;;;;6.67;6.37;;;15.40;23.00;;;;;;5074493;28;20664;-71
2022/05/23 00:17:19;;;;;;;7.23;6.77;;;15.40;22.80;;;;;;5073979;28;21110;-71
2022/05/23 00:19:45;;;;;;;6.90;6.50;;;15.30;23.20;;;;;;5074042;28;20436;-71
2022/05/23 00:22:12;;;;;;;7.67;7.27;;;15.20;23.70;;;;;;5073978;28;20439;-71
2022/05/23 00:24:37;;;;;;;6.90;6.50;;;15.20;23.80;;;;;;5074300;28;20420;-72
2022/05/23 00:27:04;;;;;;;6.10;5.70;;;15.10;23.90;;;;;;5073983;28;20459;-71
2022/05/23 00:29:30;;;;;;;6.87;6.50;;;;;;;;;;5072422;28;20531;-71
2022/05/23 00:37:24;;;;;;;6.40;6.00;;;14.90;24.30;;;;;;5073870;28;20411;-71
2022/05/23 00:39:50;;;;;;;7.03;6.53;;;15.00;24.00;;;;;;5073496;28;20449;-70
2022/05/23 00:45:04;;;;;;;5.60;5.30;;;14.90;24.20;;;;;;5073821;28;20582;-70
2022/05/23 00:47:33;;;;;;;6.80;6.27;;;14.90;24.00;;;;;;5072019;28;20828;-70
2022/05/23 00:49:59;;;;;;;6.50;6.00;;;14.80;24.00;;;;;;5073459;28;20428;-73
2022/05/23 00:52:35;;;;;;;6.27;5.97;;;14.80;24.10;;;;;;5073431;28;20508;-70
2022/05/23 00:55:06;;;;;;;6.10;5.73;;;14.80;23.90;;;;;;5073683;28;20503;-70
2022/05/23 00:57:37;;;;;;;5.90;5.60;;;14.80;24.30;;;;;;5073094;28;20408;-70
2022/05/23 01:00:06;;;;;;;6.80;6.40;;;14.80;24.30;;;;;;5071924;28;20440;-70
2022/05/23 01:02:31;;;;;;;6.47;6.10;;;14.70;24.40;;;;;;5071872;28;20413;-71
2022/05/23 01:04:57;;;;;;;6.43;6.03;;;14.80;29.30;;;;;;5072432;28;20435;-71
2022/05/23 01:07:23;;;;;;;6.30;6.00;;;14.80;24.10;;;;;;5072924;28;20237;-71
2022/05/23 01:09:50;;;;;;;5.93;5.63;;;14.80;23.90;;;;;;5071889;28;20280;-71
2022/05/23 01:12:16;;;;;;;5.53;5.23;;;14.70;23.90;;;;;;5073206;28;20309;-71
2022/05/23 01:14:52;;;;;;;12.70;6.43;;;14.70;24.10;;;;;;5073072;28;20499;-71
2022/05/23 01:17:18;;;;;;;5.90;5.50;;;14.80;24.10;;;;;;5072872;28;20174;-71
2022/05/23 01:19:44;;;;;;;6.47;6.17;;;14.80;23.70;;;;;;5071899;28;20432;-71
2022/05/23 01:22:19;;;;;;;6.07;5.50;;;14.90;23.60;;;;;;5072964;28;20924;-71
2022/05/23 01:24:48;;;;;;;6.37;6.00;;;14.80;23.70;;;;;;5073004;28;20173;-70
2022/05/23 01:27:14;;;;;;;6.37;5.97;;;14.80;23.90;;;;;;5072675;28;20461;-71
2022/05/23 01:29:44;;;;;;;5.97;5.67;;;14.60;24.40;;;;;;5073214;28;20424;-70
2022/05/23 01:32:10;;;;;;;6.53;6.03;;;14.50;25.00;;;;;;5072957;28;20894;-70
2022/05/23 01:34:36;;;;;;;5.67;5.30;;;14.50;24.90;;;;;;5072767;28;20424;-70
2022/05/23 01:37:02;;;;;;;4.97;4.67;;;14.40;25.60;;;;;;5072822;28;20923;-70
2022/05/23 01:39:28;;;;;;;4.90;4.60;;;14.40;25.60;;;;;;5072250;28;20210;-70
2022/05/23 01:41:53;;;;;;;5.63;5.03;;;14.50;25.50;;;;;;5072737;28;20852;-71
2022/05/23 01:44:19;;;;;;;6.00;5.60;;;14.50;25.40;;;;;;5072887;28;20182;-71
2022/05/23 01:46:44;;;;;;;5.97;5.57;;;14.50;25.50;;;;;;5073168;28;20671;-70
2022/05/23 01:49:10;;;;;;;4.60;4.20;;;14.40;25.60;;;;;;5072301;28;20293;-69
2022/05/23 01:51:36;;;;;;;5.57;5.23;;;14.20;26.30;;;;;;5070818;28;20178;-69
2022/05/23 01:54:01;;;;;;;4.27;3.97;;;14.10;26.90;;;;;;5072318;28;20188;-69
2022/05/23 01:56:27;;;;;;;4.63;4.23;;;14.00;26.90;;;;;;5072697;28;20181;-68
2022/05/23 02:01:37;;;;;;;3.90;3.60;;;13.90;27.70;;;;;;5072342;28;20226;-69
2022/05/23 02:04:03;;;;;;;4.30;4.00;;;13.90;28.10;;;;;;5071003;28;20417;-68
2022/05/23 02:06:29;;;;;;;3.40;3.20;;;13.90;28.20;;;;;;5072479;28;20824;-69
2022/05/23 02:08:54;;;;;;;3.90;3.60;;;14.00;28.10;;;;;;5072872;28;20424;-68
2022/05/23 02:11:20;;;;;;;3.97;3.67;;;14.00;28.20;;;;;;5074361;28;20181;-69
2022/05/23 02:13:46;;;;;;;4.40;3.60;;;13.90;29.00;;;;;;5075345;28;20177;-68
2022/05/23 02:16:12;;;;;;;3.97;3.50;;;13.90;28.60;;;;;;5074855;28;20544;-68
2022/05/23 02:18:37;;;;;;;3.43;3.20;;;13.80;29.00;;;;;;5075901;28;20197;-70
2022/05/23 02:21:03;;;;;;;4.17;3.30;;;13.60;29.80;;;;;;5075733;28;20503;-70
2022/05/23 02:23:28;;;;;;;3.47;3.17;;;13.60;29.80;;;;;;5076219;28;20784;-69
2022/05/23 02:25:54;;;;;;;3.90;3.20;;;13.70;29.60;;;;;;5075863;28;20181;-69
2022/05/23 02:28:20;;;;;;;3.90;3.60;;;13.60;29.80;;;;;;5075113;28;20236;-69
2022/05/23 02:30:47;;;;;;;3.90;3.53;;;13.50;29.90;;;;;;5072635;28;20638;-68
2022/05/23 02:33:13;;;;;;;4.07;3.77;;;13.60;29.80;;;;;;5072737;28;20420;-69
2022/05/23 02:35:38;;;;;;;3.50;3.20;;;13.80;29.30;;;;;;5071269;28;20425;-70
2022/05/23 02:38:04;;;;;;;4.07;3.60;;;13.80;29.40;;;;;;5072069;28;20972;-69
2022/05/23 02:40:30;;;;;;;5.47;3.60;;;13.70;29.30;;;;;;5072400;28;20186;-69
2022/05/23 02:42:55;;;;;;;4.17;3.87;;;13.70;29.30;;;;;;5072174;28;20206;-69
2022/05/23 02:45:21;;;;;;;4.37;3.97;;;13.70;29.30;;;;;;5071401;28;20181;-69
2022/05/23 02:47:46;;;;;;;5.47;3.93;;;13.80;29.40;;;;;;5072021;28;20210;-69
2022/05/23 02:50:13;;;;;;;4.80;4.20;;;13.80;29.40;;;;;;5072335;28;20228;-69
2022/05/23 02:52:40;;;;;;;4.50;4.20;;;13.90;29.40;;;;;;5072562;28;20170;-69
2022/05/23 02:55:07;;;;;;;4.20;3.90;;;14.00;28.30;;;;;;5072583;28;20409;-70
2022/05/23 02:57:32;;;;;;;7.20;4.10;;;13.90;29.00;;;;;;5071609;28;20415;-70
2022/05/23 02:59:58;;;;;;;3.50;3.20;;;13.80;29.30;;;;;;5071772;28;20440;-69
2022/05/23 03:05:08;;;;;;;4.60;3.50;;;13.80;29.40;;;;;;5075971;28;20265;-69
2022/05/23 03:07:34;;;;;;;4.43;4.03;;;13.80;29.10;;;;;;5075315;28;20491;-69
2022/05/23 03:10:00;;;;;;;4.83;4.33;;;13.90;28.60;;;;;;5075625;28;20511;-69
2022/05/23 03:12:27;;;;;;;3.90;3.50;;;14.00;28.50;;;;;;5075511;28;20170;-69
2022/05/23 03:14:53;;;;;;;4.43;4.00;;;13.90;28.30;;;;;;5075392;28;20908;-69
2022/05/23 03:17:19;;;;;;;5.60;4.17;;;14.00;28.30;;;;;;5075991;28;20488;-69
2022/05/23 03:19:44;;;;;;;5.20;4.40;;;13.90;28.40;;;;;;5075543;28;20431;-70
2022/05/23 03:27:40;;;;;;;4.10;3.80;;;14.00;28.60;;;;;;5074737;28;20834;-70
2022/05/23 03:30:07;;;;;;;4.07;3.77;;;14.00;28.20;;;;;;5075088;28;20416;-69
2022/05/23 03:32:34;;;;;;;4.10;3.80;;;14.10;28.20;;;;;;5075363;28;20584;-70
2022/05/23 03:34:59;;;;;;;4.23;3.90;;;14.30;27.80;;;;;;5073606;28;20419;-70
2022/05/23 03:37:25;;;;;;;4.00;3.70;;;14.30;27.70;;;;;;5073292;28;20934;-69
2022/05/23 03:39:51;;;;;;;4.90;4.27;;;14.40;27.70;;;;;;5074624;28;20266;-70
2022/05/23 03:42:17;;;;;;;5.07;4.73;;;14.50;27.00;;;;;;5074714;28;20232;-70
2022/05/23 03:44:43;;;;;;;6.00;5.50;;;14.80;25.90;;;;;;5075037;28;20257;-70
2022/05/23 03:47:09;;;;;;;6.40;6.10;;;15.10;24.20;;;;;;5074488;28;20553;-70
2022/05/23 03:49:34;;;;;;;8.27;7.70;;;15.30;23.10;;;;;;5074623;28;20301;-69
2022/05/23 03:52:00;;;;;;;7.80;7.40;;;15.50;22.20;;;;;;5074677;28;20180;-69
2022/05/23 03:54:26;;;;;;;7.60;7.30;;;15.70;21.30;;;;;;5074670;28;20172;-69
2022/05/23 03:56:56;;;;;;;9.13;8.67;;;16.00;20.30;;;;;;5074427;28;20185;-70
2022/05/23 03:59:22;;;;;;;8.40;8.00;;;16.20;21.00;;;;;;5072988;28;20223;-69
2022/05/23 04:01:47;;;;;;;8.10;7.70;;;16.30;21.20;;;;;;5074565;28;20415;-70
2022/05/23 04:04:13;;;;;;;8.90;8.40;;;16.30;21.70;;;;;;5073537;28;20697;-69
2022/05/23 04:06:38;;;;;;;8.50;8.00;;;16.30;21.90;;;;;;5074271;28;20254;-70
2022/05/23 04:09:04;;;;;;;8.80;8.30;;;16.10;22.30;;;;;;5074022;28;20185;-68
2022/05/23 04:11:30;;;;;;;8.07;7.57;;;16.00;22.50;;;;;;5072982;28;20547;-70
2022/05/23 04:13:55;;;;;;;7.00;6.60;;;15.90;22.40;;;;;;5074192;28;20221;-70
2022/05/23 04:16:21;;;;;;;7.23;6.73;;;15.90;22.40;;;;;;5074277;28;20708;-69
2022/05/23 04:18:46;;;;;;;6.90;6.53;;;15.80;22.40;;;;;;5072904;28;20261;-70
2022/05/23 04:21:12;;;;;;;7.33;6.63;;;15.60;23.20;;;;;;5074211;28;20180;-70
2022/05/23 04:23:38;;;;;;;6.50;6.20;;;15.50;23.80;;;;;;5074371;28;20185;-70
2022/05/23 04:26:09;;;;;;;6.20;5.90;;;15.70;23.90;;;;;;5073897;28;20200;-70
2022/05/23 04:28:36;;;;;;;6.47;6.13;;;15.80;23.70;;;;;;5072411;28;20448;-70
2022/05/23 04:31:02;;;;;;;5.67;5.37;;;15.60;23.60;;;;;;5073897;28;20419;-69
2022/05/23 04:36:12;;;;;;;5.17;4.87;;;15.30;25.80;;;;;;5076358;28;20447;-69
2022/05/23 04:38:37;;;;;;;5.90;5.30;;;15.30;26.20;;;;;;5088009;22;20497;-68
2022/05/23 04:41:06;;;;;;;5.30;5.00;;;15.30;26.40;;;;;;5073734;28;20205;-69
2022/05/23 04:43:32;;;;;;;4.47;4.17;;;15.30;26.90;;;;;;5073988;28;20179;-69
2022/05/23 04:45:57;;;;;;;5.60;5.10;;;15.40;26.60;;;;;;5073568;28;20403;-68
2022/05/23 04:51:07;;;;;;;4.90;4.50;;;15.40;27.20;;;;;;5073780;28;20731;-69
2022/05/23 04:53:32;;;;;;;5.70;5.40;;;15.50;26.40;;;;;;5073506;28;20414;-68
2022/05/23 04:56:00;;;;;;;5.07;4.77;;;15.60;26.00;;;;;;5073296;28;20223;-68
2022/05/23 04:58:26;;;;;;;7.43;5.00;;;15.50;26.40;;;;;;5072998;28;20660;-69
2022/05/23 05:00:53;;;;;;;6.13;5.73;;;15.60;26.10;;;;;;5073243;28;20428;-69
2022/05/23 05:03:19;;;;;;;6.13;5.73;;;15.70;25.40;;;;;;5073102;28;20410;-69
2022/05/23 05:05:46;;;;;;;5.80;5.40;;;15.80;25.60;;;;;;5073099;28;20499;-69
2022/05/23 05:08:12;;;;;;;5.80;5.40;;;15.80;25.80;;;;;;5072769;28;20419;-69
2022/05/23 05:10:38;;;;;;;5.23;4.80;;;15.80;26.20;;;;;;5072990;28;20966;-69
2022/05/23 05:13:04;;;;;;;4.63;4.33;;;15.70;26.50;;;;;;5073149;28;20397;-69
2022/05/23 05:15:30;;;;;;;5.20;4.70;;;15.70;26.50;;;;;;5072981;28;20183;-68
2022/05/23 05:17:56;;;;;;;8.17;4.97;;;15.70;26.50;;;;;;5072751;28;20265;-68
2022/05/23 05:20:23;;;;;;;4.77;4.43;;;15.60;26.40;;;;;;5072891;28;20426;-68
2022/05/23 05:22:50;;;;;;;6.40;6.00;;;15.70;27.20;;;;;;5072889;28;20954;-68
2022/05/23 05:25:19;;;;;;;5.63;4.67;;;15.80;27.90;;;;;;5072956;28;20178;-69
2022/05/23 05:27:45;;;;;;;5.90;5.40;;;15.90;26.90;;;;;;5071515;28;20465;-69
2022/05/23 05:30:19;;;;;;;4.87;4.50;;;16.00;26.80;;;;;;5071449;28;20503;-69
2022/05/23 05:33:01;;;;;;;5.97;5.47;;;16.00;26.70;;;;;;5072943;28;21011;-70
2022/05/23 05:35:33;;;;;;;5.30;4.90;;;16.00;26.70;;;;;;5073078;28;20419;-69
2022/05/23 05:38:03;;;;;;;6.33;5.70;;;16.10;26.80;;;;;;5071070;28;20790;-70
2022/05/23 05:40:32;;;;;;;5.70;5.20;;;16.20;26.80;;;;;;5060508;28;20444;-69
2022/05/23 05:43:06;;;;;;;6.30;5.80;;;16.40;26.70;;;;;;5052789;28;20465;-67
2022/05/23 05:45:37;;;;;;;5.67;5.03;;;16.40;26.80;;;;;;5052220;28;20439;-67
2022/05/23 05:48:03;;;;;;;5.40;4.90;;;16.60;26.40;;;;;;5052390;28;20467;-68
2022/05/23 05:50:32;;;;;;;5.27;4.90;;;16.70;28.60;;;;;;5051277;28;20477;-69
2022/05/23 05:53:03;;;;;;;6.20;5.80;;;16.70;26.30;;;;;;5052334;28;20416;-67
2022/05/23 05:55:29;;;;;;;6.50;6.10;;;16.70;26.60;;;;;;5052251;28;20902;-68
2022/05/23 05:57:56;;;;;;;6.83;6.37;;;16.80;26.50;;;;;;5051993;28;20455;-69
2022/05/23 06:00:21;;;;;;;6.20;5.87;;;17.10;25.80;;;;;;5052190;28;20441;-69
2022/05/23 06:02:49;;;;;;;6.67;6.27;;;17.20;25.70;;;;;;5050937;28;20432;-67
2022/05/23 06:05:14;;;;;;;6.60;6.10;;;17.50;25.10;;;;;;5052290;28;20297;-68
2022/05/23 06:13:08;;;;;;;7.17;6.70;;;18.30;24.10;;;;;;5058748;28;20493;-68
2022/05/23 06:15:34;;;;;;;7.63;7.30;;;18.70;23.20;;;;;;5057093;28;20892;-69
2022/05/23 06:17:59;;;;;;;9.00;8.43;;;19.10;22.60;;;;;;5058677;28;20182;-69
2022/05/23 06:20:25;;;;;;;8.90;8.37;;;19.40;21.70;;;;;;5058614;28;20183;-67
2022/05/23 06:22:51;;;;;;;8.23;7.83;;;19.60;21.60;;;;;;5055344;28;20320;-67
2022/05/23 06:25:17;;;;;;;9.60;9.10;;;20.20;21.30;;;;;;5052285;28;20213;-67
2022/05/23 06:27:43;;;;;;;10.90;10.30;;;20.70;19.80;;;;;;5052386;28;20859;-68
2022/05/23 06:30:12;;;;;;;10.50;10.00;;;21.10;18.30;;;;;;5052311;28;20528;-68
2022/05/23 06:32:38;;;;;;;9.57;9.17;;;21.50;17.60;;;;;;5052240;28;20957;-67
2022/05/23 06:35:08;;;;;;;10.87;10.27;;;21.50;17.60;;;;;;5051975;28;20504;-68
2022/05/23 06:37:35;;;;;;;11.20;10.80;;;21.70;17.40;;;;;;5051519;28;20181;-68
2022/05/23 06:40:03;;;;;;;11.37;10.57;;;21.90;15.90;;;;;;5051992;28;20464;-67
2022/05/23 06:42:29;;;;;;;11.70;11.20;;;22.20;15.80;;;;;;5051848;28;20413;-68
2022/05/23 06:44:55;;;;;;;12.03;11.37;;;22.60;15.10;;;;;;5051802;28;20784;-67
2022/05/23 06:47:21;;;;;;;12.00;11.50;;;23.00;14.10;;;;;;5051841;28;20510;-68
2022/05/23 06:49:46;;;;;;;11.93;11.37;;;23.20;12.90;;;;;;5051849;28;20194;-67
2022/05/23 06:52:15;;;;;;;12.47;11.97;;;23.30;12.90;;;;;;5051546;28;20182;-67
2022/05/23 06:54:41;;;;;;;14.10;13.13;;;23.60;13.00;;;;;;5052102;28;20656;-68
2022/05/23 06:57:07;;;;;;;12.50;12.00;;;23.90;12.50;;;;;;5051323;28;20757;-67
2022/05/23 06:59:33;;;;;;;12.90;12.20;;;24.20;12.20;;;;;;5051477;28;20429;-67
2022/05/23 07:01:59;;;;;;;13.13;12.53;;;24.50;11.20;;;;;;5050162;28;20453;-67
2022/05/23 07:04:25;;;;;;;12.60;11.77;;;24.50;10.70;;;;;;5051325;28;20191;-67
2022/05/23 07:12:20;;;;;;;12.50;11.90;;;24.20;10.70;;;;;;5021993;28;20436;-68
2022/05/23 07:14:46;;;;;;;13.43;12.33;;;24.30;11.10;;;;;;5065660;28;20921;-66
2022/05/23 07:17:12;;;;;;;13.20;12.70;;;24.50;11.30;;;;;;5066320;28;20205;-67
2022/05/23 07:19:39;;;;;;;12.40;12.00;;;24.80;10.80;;;;;;5054914;28;20444;-68
2022/05/23 07:22:05;;;;;;;13.27;12.77;;;24.90;10.90;;;;;;5062354;28;20522;-67
2022/05/23 07:24:31;;;;;;;13.23;12.23;;;25.10;11.00;;;;;;5066499;28;20432;-67
2022/05/23 07:26:58;;;;;;;12.50;12.00;;;25.40;10.70;;;;;;5066990;28;20452;-67
2022/05/23 07:29:24;;;;;;;13.57;12.50;;;25.60;11.30;;;;;;5066706;28;20447;-67
2022/05/23 07:31:50;;;;;;;13.33;12.60;;;25.80;10.70;;;;;;5067070;28;20416;-66
2022/05/23 07:34:16;;;;;;;12.90;12.40;;;26.30;9.20;;;;;;5066513;28;20550;-67
2022/05/23 07:36:42;;;;;;;13.60;13.00;;;26.60;8.50;;;;;;5067617;28;20446;-67
2022/05/23 07:39:08;;;;;;;14.20;13.50;;;26.60;8.50;;;;;;5065689;28;20221;-67
2022/05/23 07:41:34;;;;;;;13.60;13.00;;;26.60;8.50;;;;;;5066684;28;20639;-67
2022/05/23 07:44:00;;;;;;;13.73;12.83;;;26.60;8.60;;;;;;5063254;28;20451;-67
2022/05/23 07:46:26;;;;;;;13.27;12.67;;;26.50;8.80;;;;;;5066196;28;20452;-67
2022/05/23 07:48:51;;;;;;;14.10;13.50;;;26.30;8.70;;;;;;5066296;28;20201;-68
2022/05/23 07:51:20;;;;;;;14.13;13.33;;;26.20;8.80;;;;;;5069611;28;20182;-68
2022/05/23 08:01:59;;;;;;;13.97;13.37;;;26.70;8.70;;;;;;5074433;28;20520;-65
2022/05/23 08:04:25;;;;;;;14.63;14.03;;;27.40;8.10;;;;;;5073707;28;20450;-66
2022/05/23 08:06:52;;;;;;;14.30;13.70;;;28.20;6.90;;;;;;5073808;28;20247;-66
2022/05/23 08:09:18;;;;;;;15.00;14.30;;;28.50;6.50;;;;;;5073977;28;20197;-67
2022/05/23 08:11:48;;;;;;;15.47;14.40;;;29.00;5.50;;;;;;5062545;28;20436;-67
2022/05/23 08:14:14;;;;;;;15.27;14.60;;;29.10;4.90;;;;;;5054117;28;20533;-67
2022/05/23 08:16:40;;;;;;;15.80;15.00;;;29.30;3.90;;;;;;5054118;28;20415;-67
2022/05/23 08:19:06;;;;;;;14.20;13.70;;;29.30;4.50;;;;;;5053682;28;20440;-66
2022/05/23 08:21:32;;;;;;;14.40;13.90;;;29.70;4.10;;;;;;5053079;28;20582;-67
2022/05/23 08:23:59;;;;;;;15.63;14.83;;;30.00;3.70;;;;;;5053817;28;20470;-67
2022/05/23 08:26:25;;;;;;;14.70;14.00;;;30.10;3.80;;;;;;5053804;28;20492;-67
2022/05/23 08:28:51;;;;;;;15.83;15.13;;;30.20;3.80;;;;;;5053325;28;20432;-65
2022/05/23 08:31:17;;;;;;;14.90;14.30;;;30.00;3.50;;;;;;5053699;28;20409;-66
2022/05/23 08:33:43;;;;;;;16.27;15.20;;;29.80;3.80;;;;;;5053462;28;20402;-66
2022/05/23 08:36:10;;;;;;;15.63;14.90;;;29.60;4.10;;;;;;5053770;28;20424;-66
2022/05/23 08:38:36;;;;;;;15.20;14.20;;;29.70;4.10;;;;;;5060191;28;20258;-66
2022/05/23 08:41:23;;;;;;;14.70;14.00;;;29.80;4.20;;;;;;5074137;28;20420;-65
2022/05/23 08:43:51;;;;;;;15.23;14.63;;;30.00;4.30;;;;;;5073493;28;20412;-66
2022/05/23 08:46:51;;;;;;;15.50;14.80;;;29.90;4.10;;;;;;5073146;28;20483;-69
2022/05/23 08:49:38;;;;;;;14.10;13.60;;;29.70;4.10;;;;;;5052989;28;20428;-66
2022/05/23 08:52:10;;;;;;;15.67;14.87;;;29.50;4.00;;;;;;5053571;28;20409;-66
2022/05/23 08:55:04;;;;;;;15.67;14.77;;;29.30;4.40;;;;;;5068634;28;20420;-66
2022/05/23 08:58:02;;;;;;;15.70;15.00;;;28.90;4.90;;;;;;5053344;28;20409;-67
2022/05/23 09:00:43;;;;;;;15.40;14.70;;;28.70;5.20;;;;;;5071429;28;20424;-67
2022/05/23 09:03:28;;;;;;;14.50;13.90;;;28.30;5.90;;;;;;5073048;28;20415;-66
2022/05/23 09:06:00;;;;;;;16.70;15.80;;;28.10;6.10;;;;;;5073105;28;20439;-67
2022/05/23 09:08:29;;;;;;;16.10;14.60;;;28.00;6.80;;;;;;5071635;28;21006;-66
2022/05/23 09:11:05;;;;;;;14.97;14.37;;;27.80;6.40;;;;;;5072987;28;20412;-66
2022/05/23 09:13:36;;;;;;;14.97;14.37;;;28.00;6.50;;;;;;5073024;28;20415;-66
2022/05/23 09:16:04;;;;;;;15.90;15.10;;;28.00;6.40;;;;;;5073080;28;20775;-68
2022/05/23 09:18:46;;;;;;;16.33;14.93;;;28.10;6.40;;;;;;5052833;28;20520;-67
2022/05/23 09:21:12;;;;;;;14.80;14.20;;;28.30;6.40;;;;;;5052943;28;20417;-66
2022/05/23 09:23:49;;;;;;;17.37;16.33;;;28.20;6.20;;;;;;5052699;28;20406;-66
2022/05/23 09:26:29;;;;;;;14.60;13.97;;;28.10;6.30;;;;;;5052970;28;20296;-66
2022/05/23 09:28:55;;;;;;;16.40;14.70;;;27.80;6.60;;;;;;5059456;28;20444;-67
2022/05/23 09:31:36;;;;;;;15.20;14.60;;;27.70;7.00;;;;;;5072554;28;20411;-67
2022/05/23 09:34:03;;;;;;;16.40;15.60;;;27.60;7.30;;;;;;5072725;28;20936;-67
2022/05/23 09:36:38;;;;;;;14.73;14.03;;;27.50;7.40;;;;;;5072384;28;20424;-67
2022/05/23 09:39:07;;;;;;;15.03;14.00;;;27.40;7.60;;;;;;5072121;28;20888;-67
2022/05/23 09:49:56;;;;;;;15.70;15.10;;;28.00;7.30;;;;;;5072570;28;20994;-66
2022/05/23 09:52:29;;;;;;;16.60;15.90;;;28.10;7.00;;;;;;5087942;28;20432;-66
2022/05/23 09:55:06;;;;;;;15.63;14.93;;;27.80;7.90;;;;;;5072051;28;20181;-66
2022/05/23 09:57:43;;;;;;;16.57;15.87;;;27.40;7.60;;;;;;5071952;28;20502;-67
2022/05/23 10:00:26;;;;;;;15.67;14.97;;;27.10;8.20;;;;;;5071765;28;20436;-65
2022/05/23 10:02:57;;;;;;;15.80;15.00;;;26.80;8.80;;;;;;5072254;28;20420;-67
2022/05/23 10:05:30;;;;;;;14.77;14.17;;;26.50;9.30;;;;;;5072047;28;20420;-67
2022/05/23 10:08:01;;;;;;;14.63;14.03;;;26.20;9.60;;;;;;5071831;28;20466;-67
2022/05/23 10:10:32;;;;;;;15.40;14.80;;;25.80;10.20;;;;;;5066956;28;20436;-67
2022/05/23 10:13:36;;;;;;;15.20;14.50;;;25.40;11.20;;;;;;5069617;28;20928;-67
2022/05/23 10:16:22;;;;;;;15.30;14.40;;;25.20;11.70;;;;;;5056995;28;20419;-67
2022/05/23 10:19:08;;;;;;;14.20;13.60;;;25.00;12.90;;;;;;5071662;28;20504;-67
2022/05/23 10:21:44;;;;;;;13.57;13.07;;;24.80;14.50;;;;;;5070776;28;20452;-67
2022/05/23 10:24:30;;;;;;;13.70;13.20;;;24.70;13.80;;;;;;5072061;28;20440;-67
2022/05/23 10:27:00;;;;;;;14.83;13.93;;;24.60;14.10;;;;;;5072003;28;20468;-66
2022/05/23 10:29:58;;;;;;;13.37;12.77;;;24.60;15.20;;;;;;5071585;28;20444;-66
2022/05/23 10:32:35;;;;;;;13.33;12.73;;;24.50;15.60;;;;;;5066450;28;20502;-67
2022/05/23 10:35:09;;;;;;;14.73;13.70;;;24.20;16.60;;;;;;5052150;28;20413;-67
2022/05/23 10:37:40;;;;;;;12.63;12.03;;;24.20;17.50;;;;;;5051601;28;20796;-67
2022/05/23 10:43:01;;;;;;;12.97;12.27;;;24.00;18.30;;;;;;5086292;28;20444;-69
2022/05/23 10:45:59;;;;;;;11.90;11.30;;;24.00;19.30;;;;;;5092886;28;20418;-69
2022/05/23 10:48:48;;;;;;;11.20;10.70;;;23.90;19.20;;;;;;5091629;28;20487;-69
2022/05/23 10:51:43;;;;;;;11.97;11.17;;;23.80;20.80;;;;;;5091977;28;20907;-70
2022/05/23 10:54:39;;;;;;;10.83;10.33;;;23.80;19.50;;;;;;5084018;28;20428;-67
2022/05/23 10:57:45;;;;;;;11.93;10.73;;;23.90;19.30;;;;;;5067403;28;20922;-68
2022/05/23 11:00:24;;;;;;;12.90;11.50;;;23.90;20.60;;;;;;5043890;28;20498;-66
2022/05/23 11:03:04;;;;;;;10.23;9.73;;;23.70;20.20;;;;;;5064724;28;21044;-68
2022/05/23 11:05:58;;;;;;;10.40;9.80;;;23.60;20.10;;;;;;5071720;28;20771;-68
2022/05/23 11:08:56;;;;;;;10.47;9.87;;;23.50;20.60;;;;;;5070114;28;20482;-68
2022/05/23 11:11:57;;;;;;;10.23;9.63;;;23.30;21.30;;;;;;5048987;28;20432;-66
2022/05/23 11:14:51;;;;;;;10.23;9.53;;;23.30;22.30;;;;;;5057989;28;20882;-67
2022/05/23 11:17:33;;;;;;;9.63;8.70;;;23.10;22.70;;;;;;5071140;28;20795;-66
2022/05/23 11:20:06;;;;;;;10.50;6.30;;;22.80;24.70;;;;;;5071370;28;20515;-66
2022/05/23 11:22:48;;;;;;;10.17;6.37;;;21.30;29.70;;;;;;5069878;28;20412;-66
2022/05/23 11:25:20;;;;;;;9.60;5.30;;;20.50;34.10;;;;;;5072474;28;20404;-67
2022/05/23 11:34:05;;;;;;;8.23;4.00;;;19.40;39.80;;;;;;5075522;28;20419;-69
2022/05/23 11:36:44;;;;;;;7.23;3.93;;;19.20;39.10;;;;;;5074824;28;20473;-66
2022/05/23 11:39:42;;;;;;;5.00;3.53;;;19.10;40.40;;;;;;5074200;28;20451;-67
2022/05/23 11:42:16;;;;;;;5.73;3.90;;;19.20;40.50;;;;;;5074827;28;20783;-67
2022/05/23 11:44:42;;;;;;;4.83;3.43;;;19.20;39.10;;;;;;5074340;28;20420;-71
2022/05/23 11:47:18;;;;;;;9.13;4.07;;;18.90;40.10;;;;;;5074254;28;21038;-65
2022/05/23 11:49:48;;;;;;;4.40;3.47;;;18.80;43.00;;;;;;5054828;28;20629;-67
2022/05/23 11:52:30;;;;;;;4.93;3.57;;;18.40;43.50;;;;;;5073649;28;20428;-66
2022/05/23 11:54:56;;;;;;;3.70;3.10;;;18.40;46.50;;;;;;5072887;28;20779;-67
2022/05/23 11:57:37;;;;;;;8.10;4.13;;;18.00;44.50;;;;;;5073795;28;20478;-67
2022/05/23 12:00:25;;;;;;;6.73;3.47;;;17.50;47.70;;;;;;5075451;28;20210;-64
2022/05/23 12:03:06;;;;;;;6.43;3.20;;;17.50;48.00;;;;;;5076858;28;20435;-67
2022/05/23 12:05:33;;;;;;;8.13;4.40;;;17.30;44.20;;;;;;5059196;28;20937;-68
2022/05/23 12:08:02;;;;;;;6.03;3.17;;;17.20;45.90;;;;;;5069728;28;20463;-64
2022/05/23 12:10:28;;;;;;;5.73;3.30;;;17.20;44.10;;;;;;5070405;28;20428;-66
2022/05/23 12:12:55;;;;;;;2.87;2.57;;;17.30;43.60;;;;;;5070434;28;20423;-68
2022/05/23 12:15:50;;;;;;;4.03;2.90;;;17.40;41.20;;;;;;5070134;28;20462;-67
2022/05/23 12:18:21;;;;;;;6.00;3.27;;;17.40;39.20;;;;;;5069782;28;20427;-66
2022/05/23 12:20:49;;;;;;;3.53;2.30;;;17.60;43.00;;;;;;5069418;28;20416;-66
2022/05/23 12:23:35;;;;;;;8.33;2.97;;;17.80;46.10;;;;;;5070137;28;20517;-67
2022/05/23 12:26:26;;;;;;;4.20;3.33;;;18.00;48.40;;;;;;5069775;28;20412;-67
2022/05/23 12:29:19;;;;;;;4.47;3.33;;;18.30;48.70;;;;;;5069483;28;20467;-66
2022/05/23 12:32:06;;;;;;;3.63;2.47;;;18.70;49.10;;;;;;5070565;28;20428;-70
2022/05/23 12:34:39;;;;;;;5.50;3.23;;;19.20;42.40;;;;;;5069590;28;20435;-68
2022/05/23 12:37:04;;;;;;;4.90;2.60;;;19.60;43.00;;;;;;5071365;28;20420;-68
2022/05/23 12:39:52;;;;;;;3.60;2.70;;;20.00;37.80;;;;;;5069455;28;20497;-67
2022/05/23 12:42:38;;;;;;;2.70;2.23;;;20.50;36.80;;;;;;5072366;28;20190;-68
2022/05/23 12:45:28;;;;;;;3.10;2.80;;;20.90;39.00;;;;;;5070279;28;20427;-68
2022/05/23 12:47:56;;;;;;;3.30;3.00;;;21.30;35.20;;;;;;5068824;28;20456;-69
2022/05/23 12:50:40;;;;;;;3.67;3.30;;;21.60;32.40;;;;;;5069216;28;20428;-69
2022/05/23 12:53:33;;;;;;;4.43;3.90;;;22.00;33.70;;;;;;5069568;28;20482;-69
2022/05/23 12:56:40;;;;;;;5.10;4.70;;;22.50;28.80;;;;;;5069577;28;20412;-69
2022/05/23 12:59:31;;;;;;;5.90;5.50;;;23.00;29.50;;;;;;5069229;28;20796;-66
2022/05/23 13:02:04;;;;;;;7.10;6.70;;;23.40;25.30;;;;;;5068927;28;20454;-67
2022/05/23 13:04:39;;;;;;;7.87;7.37;;;23.60;23.60;;;;;;5068810;28;20427;-68
2022/05/23 13:07:43;;;;;;;7.10;6.70;;;23.50;25.00;;;;;;5068976;28;20455;-67
2022/05/23 13:10:16;;;;;;;8.83;8.33;;;24.00;26.00;;;;;;5050485;28;20446;-69
2022/05/23 13:13:12;;;;;;;8.53;7.73;;;24.10;23.10;;;;;;5068998;28;20424;-67
2022/05/23 13:15:39;;;;;;;8.60;7.80;;;24.10;25.20;;;;;;5043480;28;20427;-68
2022/05/23 13:23:39;;;;;;;9.40;8.70;;;24.30;25.10;;;;;;5069571;28;20882;-67
2022/05/23 13:26:07;;;;;;;9.10;8.70;;;24.50;24.00;;;;;;5068985;28;20420;-67
2022/05/23 13:28:41;;;;;;;9.03;8.43;;;24.50;22.20;;;;;;5067744;28;20421;-67
2022/05/23 13:31:23;;;;;;;8.67;8.27;;;24.30;22.10;;;;;;5068549;28;20481;-68
2022/05/23 13:33:49;;;;;;;8.73;8.23;;;24.40;22.20;;;;;;5068631;28;20412;-68
2022/05/23 13:36:14;;;;;;;8.40;7.90;;;24.50;23.40;;;;;;5069448;28;20419;-68
2022/05/23 13:38:43;;;;;;;10.73;10.03;;;24.60;22.00;;;;;;5068804;28;20458;-68
2022/05/23 13:41:26;;;;;;;10.00;9.40;;;24.70;20.10;;;;;;5068454;28;20393;-68
2022/05/23 13:43:51;;;;;;;10.23;9.63;;;24.70;19.80;;;;;;5049412;28;20448;-68
2022/05/23 13:46:23;;;;;;;9.80;9.30;;;24.50;20.10;;;;;;5048954;28;20456;-67
2022/05/23 13:48:57;;;;;;;9.60;9.20;;;24.60;19.30;;;;;;5047526;28;20282;-67
2022/05/23 13:51:32;;;;;;;10.13;9.70;;;24.40;20.20;;;;;;5048670;28;20451;-67
2022/05/23 13:54:09;;;;;;;10.07;9.60;;;24.50;19.60;;;;;;5048814;28;20932;-68
2022/05/23 13:56:38;;;;;;;9.93;9.43;;;24.40;19.20;;;;;;5048683;28;20421;-67
2022/05/23 13:59:08;;;;;;;10.33;9.63;;;24.30;19.90;;;;;;5049013;28;20437;-68
2022/05/23 14:01:51;;;;;;;9.77;9.17;;;24.40;19.70;;;;;;5049223;28;20551;-67
2022/05/23 14:04:21;;;;;;;9.23;8.83;;;24.40;20.50;;;;;;5052999;28;21010;-67
2022/05/23 14:06:56;;;;;;;10.83;9.73;;;24.50;21.00;;;;;;5068366;28;20861;-68
2022/05/23 14:09:22;;;;;;;10.03;9.47;;;24.50;20.30;;;;;;5067782;28;20972;-68
2022/05/23 14:11:53;;;;;;;10.00;9.40;;;24.50;21.70;;;;;;5067884;28;20412;-68